Time;durP1;ratioP1;P1;durP2;ratioP2;P2;SDS_P1;SDS_P2;PMS_P1;PMS_P2;Temp;Humidity;BMP_temperature;BMP_pressure;BME280_temperature;BME280_humidity;BME280_pressure;Samples;Min_cycle;Max_cycle;Signal;HPM_P1;HPM_P2
2023/11/16 00:01:06;;;;;;;;;;;;;;;6.91;100.00;100576.78;5071937;28;20015;-55
2023/11/16 00:03:33;;;;;;;;;;;;;;;6.92;100.00;100573.25;5060192;28;20610;-58
2023/11/16 00:06:01;;;;;;;;;;;;;;;6.93;100.00;100574.09;5076006;28;19946;-59
2023/11/16 00:08:29;;;;;;;;;;;;;;;6.94;100.00;100571.44;5078725;28;19982;-54
2023/11/16 00:10:59;;;;;;;;;;;;;;;6.95;100.00;100573.13;5076650;28;20011;-56
2023/11/16 00:13:26;;;;;;;;;;;;;;;6.90;100.00;100574.25;5076446;28;20001;-53
2023/11/16 00:15:53;;;;;;;;;;;;;;;6.90;100.00;100572.47;5078816;28;19951;-58
2023/11/16 00:18:20;;;;;;;;;;;;;;;6.93;100.00;100571.47;5078371;28;20410;-54
2023/11/16 00:20:47;;;;;;;;;;;;;;;6.88;100.00;100566.44;5076847;28;20389;-54
2023/11/16 00:23:14;;;;;;;;;;;;;;;6.92;100.00;100569.78;5075436;28;20377;-56
2023/11/16 00:25:41;;;;;;;;;;;;;;;6.94;100.00;100568.81;5073779;28;19932;-57
2023/11/16 00:28:08;;;;;;;;;;;;;;;6.95;100.00;100560.03;5077463;28;20007;-57
2023/11/16 00:30:35;;;;;;;;;;;;;;;6.99;100.00;100558.13;5075860;28;20026;-57
2023/11/16 00:33:02;;;;;;;;;;;;;;;6.99;100.00;100556.38;5058417;28;19924;-57
2023/11/16 00:35:29;;;;;;;;;;;;;;;6.96;100.00;100553.88;5076663;28;19932;-55
2023/11/16 00:37:56;;;;;;;;;;;;;;;6.95;100.00;100541.72;5077307;28;19964;-55
2023/11/16 00:40:23;;;;;;;;;;;;;;;6.90;100.00;100548.94;5080175;28;20713;-54
2023/11/16 00:42:50;;;;;;;;;;;;;;;6.89;100.00;100552.47;5076213;28;19924;-56
2023/11/16 00:45:19;;;;;;;;;;;;;;;6.88;100.00;100545.50;5061239;28;20066;-55
2023/11/16 00:47:47;;;;;;;;;;;;;;;6.88;100.00;100548.13;5074200;28;19962;-55
2023/11/16 00:50:14;;;;;;;;;;;;;;;6.90;100.00;100545.47;5077389;28;20015;-58
2023/11/16 00:52:41;;;;;;;;;;;;;;;6.89;100.00;100543.75;5055939;28;19932;-58
2023/11/16 00:55:08;;;;;;;;;;;;;;;6.93;100.00;100545.31;5085263;28;19924;-55
2023/11/16 00:57:35;;;;;;;;;;;;;;;6.94;100.00;100544.41;5072141;28;19959;-58
2023/11/16 01:00:04;;;;;;;;;;;;;;;6.95;100.00;100546.94;5072203;28;19963;-57
2023/11/16 01:02:31;;;;;;;;;;;;;;;6.96;100.00;100538.19;5079935;28;19970;-58
2023/11/16 01:04:59;;;;;;;;;;;;;;;6.92;100.00;100541.00;5059946;28;19966;-54
2023/11/16 01:07:27;;;;;;;;;;;;;;;6.91;100.00;100540.16;5061902;28;19961;-58
2023/11/16 01:09:54;;;;;;;;;;;;;;;6.95;100.00;100538.25;5070587;28;20396;-58
2023/11/16 01:12:25;;;;;;;;;;;;;;;6.95;100.00;100546.94;5059857;28;20569;-53
2023/11/16 01:14:59;;;;;;;;;;;;;;;6.96;100.00;100546.03;5059846;28;20446;-61
2023/11/16 01:17:31;;;;;;;;;;;;;;;6.92;100.00;100541.00;5078279;28;19964;-56
2023/11/16 01:20:05;;;;;;;;;;;;;;;6.97;100.00;100542.47;5069113;28;19970;-56
2023/11/16 01:22:40;;;;;;;;;;;;;;;6.97;100.00;100546.88;5075193;28;20386;-55
2023/11/16 01:25:15;;;;;;;;;;;;;;;6.98;100.00;100538.97;5076447;28;20481;-54
2023/11/16 01:27:50;;;;;;;;;;;;;;;7.00;100.00;100546.75;5058121;28;20007;-55
2023/11/16 01:30:17;;;;;;;;;;;;;;;7.02;100.00;100539.66;5077973;28;19967;-53
2023/11/16 01:32:45;;;;;;;;;;;;;;;7.00;100.00;100539.75;5039766;28;20466;-58
2023/11/16 01:35:13;;;;;;;;;;;;;;;7.05;100.00;100536.91;5073892;28;19971;-58
2023/11/16 01:37:42;;;;;;;;;;;;;;;7.03;100.00;100541.38;5070492;28;19978;-59
2023/11/16 01:40:10;;;;;;;;;;;;;;;7.03;100.00;100538.75;5074970;28;19971;-58
2023/11/16 01:42:37;;;;;;;;;;;;;;;7.04;100.00;100540.47;5079168;28;19981;-58
2023/11/16 01:45:05;;;;;;;;;;;;;;;7.01;100.00;100538.81;5079512;28;19925;-57
2023/11/16 01:47:32;;;;;;;;;;;;;;;6.91;100.00;100534.91;5080138;28;20353;-55
2023/11/16 01:50:00;;;;;;;;;;;;;;;6.92;100.00;100528.75;5080981;28;19924;-57
2023/11/16 01:52:27;;;;;;;;;;;;;;;6.98;100.00;100531.13;5060011;28;19929;-56
2023/11/16 01:54:54;;;;;;;;;;;;;;;6.97;100.00;100536.41;5079389;28;19935;-57
2023/11/16 01:57:21;;;;;;;;;;;;;;;6.96;100.00;100532.94;5072809;28;19946;-58
2023/11/16 01:59:48;;;;;;;;;;;;;;;6.92;100.00;100530.53;5060459;28;19946;-57
2023/11/16 02:02:15;;;;;;;;;;;;;;;6.88;100.00;100521.97;5061302;28;19924;-56
2023/11/16 02:04:42;;;;;;;;;;;;;;;6.94;100.00;100521.72;5078509;28;19989;-56
2023/11/16 02:07:09;;;;;;;;;;;;;;;6.91;100.00;100515.75;5073937;28;20011;-58
2023/11/16 02:09:36;;;;;;;;;;;;;;;6.94;100.00;100510.41;5073897;28;19939;-56
2023/11/16 02:12:03;;;;;;;;;;;;;;;6.89;100.00;100513.22;5066410;28;19935;-54
2023/11/16 02:14:30;;;;;;;;;;;;;;;6.89;100.00;100504.50;5069187;28;20427;-56
2023/11/16 02:16:57;;;;;;;;;;;;;;;6.91;100.00;100513.97;5072024;28;20031;-53
2023/11/16 02:19:30;;;;;;;;;;;;;;;6.88;100.00;100506.25;5072648;28;19956;-57
2023/11/16 02:21:59;;;;;;;;;;;;;;;6.85;100.00;100507.28;5070567;28;20382;-56
2023/11/16 02:24:27;;;;;;;;;;;;;;;6.89;100.00;100500.13;5069903;28;19979;-54
2023/11/16 02:26:54;;;;;;;;;;;;;;;6.87;100.00;100501.97;5070829;28;19929;-58
2023/11/16 02:29:21;;;;;;;;;;;;;;;6.88;100.00;100498.41;5070736;28;19932;-56
2023/11/16 02:31:48;;;;;;;;;;;;;;;6.79;100.00;100497.06;5068500;28;19975;-58
2023/11/16 02:34:15;;;;;;;;;;;;;;;6.82;100.00;100496.09;5070619;28;19928;-58
2023/11/16 02:36:42;;;;;;;;;;;;;;;6.84;100.00;100502.09;5071367;28;20011;-55
2023/11/16 02:39:13;;;;;;;;;;;;;;;6.84;100.00;100494.25;5074346;28;20359;-56
2023/11/16 02:41:41;;;;;;;;;;;;;;;6.78;100.00;100489.28;5075224;28;20023;-55
2023/11/16 02:44:08;;;;;;;;;;;;;;;6.79;100.00;100501.44;5069485;28;19964;-57
2023/11/16 02:46:35;;;;;;;;;;;;;;;6.82;100.00;100494.31;5075343;28;20430;-57
2023/11/16 02:49:02;;;;;;;;;;;;;;;6.86;100.00;100495.03;5075377;28;19924;-57
2023/11/16 02:51:31;;;;;;;;;;;;;;;6.84;100.00;100500.34;5072503;28;19924;-56
2023/11/16 02:54:02;;;;;;;;;;;;;;;6.83;100.00;100487.31;5055535;28;20741;-55
2023/11/16 02:56:29;;;;;;;;;;;;;;;6.83;100.00;100482.94;5069902;28;19947;-55
2023/11/16 02:58:56;;;;;;;;;;;;;;;6.88;100.00;100487.09;5068727;28;19970;-56
2023/11/16 03:01:23;;;;;;;;;;;;;;;6.83;100.00;100487.31;5069370;28;19979;-57
2023/11/16 03:03:50;;;;;;;;;;;;;;;6.84;100.00;100486.38;5072265;28;20369;-56
2023/11/16 03:06:18;;;;;;;;;;;;;;;6.85;100.00;100490.72;5077154;28;19924;-59
2023/11/16 03:08:46;;;;;;;;;;;;;;;6.90;100.00;100487.91;5057859;28;19975;-58
2023/11/16 03:11:13;;;;;;;;;;;;;;;6.90;100.00;100480.03;5072010;28;20020;-58
2023/11/16 03:13:41;;;;;;;;;;;;;;;6.89;100.00;100480.94;5069178;28;19924;-57
2023/11/16 03:16:08;;;;;;;;;;;;;;;6.82;100.00;100483.84;5071865;28;19954;-54
2023/11/16 03:18:35;;;;;;;;;;;;;;;6.84;100.00;100474.19;5073328;28;19963;-57
2023/11/16 03:21:02;;;;;;;;;;;;;;;6.91;100.00;100469.50;5073246;28;20015;-59
2023/11/16 03:23:29;;;;;;;;;;;;;;;6.87;100.00;100465.31;5071155;28;20466;-57
2023/11/16 03:25:57;;;;;;;;;;;;;;;6.91;100.00;100466.88;5071436;28;19954;-58
2023/11/16 03:28:24;;;;;;;;;;;;;;;6.84;100.00;100468.06;5068852;28;20011;-59
2023/11/16 03:30:51;;;;;;;;;;;;;;;6.89;100.00;100473.97;5076841;28;20011;-58
2023/11/16 03:33:18;;;;;;;;;;;;;;;6.91;100.00;100473.88;5074412;28;19960;-51
2023/11/16 03:35:48;;;;;;;;;;;;;;;6.83;100.00;100469.84;5074028;28;19963;-57
2023/11/16 03:38:18;;;;;;;;;;;;;;;6.83;100.00;100469.84;5077317;28;19967;-54
2023/11/16 03:40:45;;;;;;;;;;;;;;;6.85;100.00;100464.56;5062541;28;19975;-58
2023/11/16 03:43:12;;;;;;;;;;;;;;;6.84;100.00;100473.31;5077649;28;19959;-57
2023/11/16 03:45:39;;;;;;;;;;;;;;;6.85;100.00;100462.78;5081879;28;19951;-56
2023/11/16 03:48:08;;;;;;;;;;;;;;;6.87;100.00;100465.31;5072945;28;19967;-57
2023/11/16 03:50:36;;;;;;;;;;;;;;;6.87;100.00;100467.09;5082606;28;19956;-57
2023/11/16 03:53:03;;;;;;;;;;;;;;;6.92;100.00;100465.09;5059817;28;19964;-54
2023/11/16 03:55:30;;;;;;;;;;;;;;;6.92;100.00;100454.66;5074552;28;19924;-57
2023/11/16 03:57:57;;;;;;;;;;;;;;;6.91;100.00;100456.41;5073901;28;20314;-54
2023/11/16 04:00:25;;;;;;;;;;;;;;;6.92;100.00;100455.50;5075463;28;20428;-56
2023/11/16 04:02:54;;;;;;;;;;;;;;;6.90;100.00;100459.13;5074536;28;19978;-57
2023/11/16 04:05:21;;;;;;;;;;;;;;;6.95;100.00;100454.50;5079629;28;19999;-57
2023/11/16 04:07:48;;;;;;;;;;;;;;;6.99;100.00;100456.06;5077921;28;20015;-59
2023/11/16 04:10:15;;;;;;;;;;;;;;;6.97;100.00;100455.28;5053875;28;20019;-55
2023/11/16 04:12:42;;;;;;;;;;;;;;;6.97;100.00;100447.41;5078437;28;20023;-58
2023/11/16 04:15:13;;;;;;;;;;;;;;;6.94;100.00;100443.19;5069442;28;19985;-55
2023/11/16 04:17:40;;;;;;;;;;;;;;;6.94;100.00;100440.59;5053517;28;20019;-59
2023/11/16 04:20:11;;;;;;;;;;;;;;;6.93;100.00;100432.78;5088886;28;19936;-54
2023/11/16 04:22:39;;;;;;;;;;;;;;;6.95;100.00;100436.19;5057254;28;19971;-56
2023/11/16 04:25:22;;;;;;;;;;;;;;;6.87;100.00;100439.16;5068464;28;20007;-55
2023/11/16 04:27:50;;;;;;;;;;;;;;;6.90;100.00;100433.78;5076535;28;19983;-58
2023/11/16 04:30:19;;;;;;;;;;;;;;;6.95;100.00;100434.41;5072941;28;19959;-57
2023/11/16 04:32:46;;;;;;;;;;;;;;;6.92;100.00;100429.31;5074716;28;19924;-58
2023/11/16 04:35:14;;;;;;;;;;;;;;;6.92;100.00;100429.31;5055306;28;20007;-55
2023/11/16 04:37:42;;;;;;;;;;;;;;;6.97;100.00;100431.72;5078161;28;19975;-59
2023/11/16 04:40:09;;;;;;;;;;;;;;;6.92;100.00;100433.72;5062847;28;19974;-56
2023/11/16 04:42:36;;;;;;;;;;;;;;;6.95;100.00;100417.88;5076753;28;19924;-57
2023/11/16 04:45:04;;;;;;;;;;;;;;;6.95;100.00;100437.03;5074979;28;19975;-55
2023/11/16 04:47:31;;;;;;;;;;;;;;;6.96;100.00;100419.56;5080106;28;20398;-57
2023/11/16 04:49:58;;;;;;;;;;;;;;;6.98;100.00;100415.97;5077006;28;20460;-56
2023/11/16 04:52:28;;;;;;;;;;;;;;;7.02;100.00;100412.25;5074336;28;19928;-55
2023/11/16 04:54:56;;;;;;;;;;;;;;;6.96;100.00;100407.31;5065832;28;20012;-53
2023/11/16 04:57:22;;;;;;;;;;;;;;;6.96;100.00;100406.47;5076383;28;19928;-57
2023/11/16 04:59:50;;;;;;;;;;;;;;;6.88;100.00;100413.84;5057209;28;19928;-56
2023/11/16 05:02:17;;;;;;;;;;;;;;;6.86;100.00;100406.06;5073715;28;19932;-59
2023/11/16 05:04:44;;;;;;;;;;;;;;;6.90;100.00;100405.00;5083941;28;19954;-58
2023/11/16 05:07:12;;;;;;;;;;;;;;;6.94;100.00;100409.19;5057404;28;20086;-56
2023/11/16 05:09:39;;;;;;;;;;;;;;;6.95;100.00;100389.94;5069968;28;19971;-55
2023/11/16 05:12:07;;;;;;;;;;;;;;;6.96;100.00;100390.78;5073548;28;19924;-58
2023/11/16 05:14:35;;;;;;;;;;;;;;;6.96;100.00;100406.47;5071661;28;19924;-58
2023/11/16 05:17:05;;;;;;;;;;;;;;;6.95;100.00;100400.41;5075806;28;19982;-57
2023/11/16 05:19:32;;;;;;;;;;;;;;;6.96;100.00;100402.09;5071071;28;20043;-56
2023/11/16 05:21:59;;;;;;;;;;;;;;;6.98;100.00;100408.13;5073982;28;19982;-60
2023/11/16 05:24:26;;;;;;;;;;;;;;;6.99;100.00;100396.72;5077527;28;19932;-57
2023/11/16 05:27:01;;;;;;;;;;;;;;;7.00;100.00;100387.94;5072852;28;19970;-53
2023/11/16 05:29:29;;;;;;;;;;;;;;;7.03;100.00;100382.56;5073210;28;19959;-56
2023/11/16 05:31:57;;;;;;;;;;;;;;;7.05;100.00;100385.94;5079430;28;19967;-55
2023/11/16 05:34:24;;;;;;;;;;;;;;;7.01;100.00;100378.31;5075703;28;20504;-54
2023/11/16 05:36:52;;;;;;;;;;;;;;;6.97;100.00;100382.84;5075359;28;19993;-56
2023/11/16 05:39:19;;;;;;;;;;;;;;;6.92;100.00;100382.22;5054897;28;19963;-57
2023/11/16 05:41:46;;;;;;;;;;;;;;;6.89;100.00;100378.88;5073271;28;19963;-56
2023/11/16 05:44:13;;;;;;;;;;;;;;;6.81;100.00;100379.28;5074620;28;20359;-59
2023/11/16 05:46:40;;;;;;;;;;;;;;;6.77;100.00;100383.78;5059136;28;19982;-55
2023/11/16 05:49:07;;;;;;;;;;;;;;;6.75;100.00;100375.16;5073175;28;20023;-56
2023/11/16 05:51:34;;;;;;;;;;;;;;;6.79;100.00;100384.56;5067664;28;19963;-57
2023/11/16 05:54:01;;;;;;;;;;;;;;;6.80;100.00;100377.59;5070547;28;19929;-54
2023/11/16 05:56:28;;;;;;;;;;;;;;;6.79;100.00;100376.72;5076814;28;19955;-52
2023/11/16 05:58:55;;;;;;;;;;;;;;;6.81;100.00;100377.50;5076169;28;20007;-56
2023/11/16 06:01:22;;;;;;;;;;;;;;;6.79;100.00;100376.72;5074011;28;20495;-59
2023/11/16 06:03:50;;;;;;;;;;;;;;;6.78;100.00;100368.94;5067268;28;19967;-55
2023/11/16 06:06:17;;;;;;;;;;;;;;;6.82;100.00;100375.72;5052825;28;20365;-55
2023/11/16 06:08:47;;;;;;;;;;;;;;;6.87;100.00;100359.81;5072574;28;19955;-57
2023/11/16 06:11:15;;;;;;;;;;;;;;;6.82;100.00;100363.50;5072782;28;20020;-57
2023/11/16 06:13:42;;;;;;;;;;;;;;;6.85;100.00;100358.13;5057889;28;19924;-58
2023/11/16 06:16:12;;;;;;;;;;;;;;;6.85;100.00;100363.34;5075676;28;20014;-56
2023/11/16 06:18:39;;;;;;;;;;;;;;;6.86;100.00;100364.19;5077141;28;19974;-57
2023/11/16 06:21:06;;;;;;;;;;;;;;;6.87;100.00;100358.03;5075329;28;20003;-58
2023/11/16 06:23:33;;;;;;;;;;;;;;;6.90;100.00;100367.53;5075827;28;19971;-53
2023/11/16 06:26:00;;;;;;;;;;;;;;;6.89;100.00;100358.84;5074511;28;20430;-57
2023/11/16 06:28:27;;;;;;;;;;;;;;;6.88;100.00;100354.50;5068720;28;19963;-58
2023/11/16 06:30:55;;;;;;;;;;;;;;;6.94;100.00;100348.16;5070827;28;19960;-57
2023/11/16 06:33:22;;;;;;;;;;;;;;;6.95;100.00;100344.59;5072020;28;20020;-56
2023/11/16 06:35:49;;;;;;;;;;;;;;;6.97;100.00;100350.59;5074000;28;20414;-53
2023/11/16 06:38:16;;;;;;;;;;;;;;;6.96;100.00;100351.53;5055042;28;19936;-53
2023/11/16 06:40:43;;;;;;;;;;;;;;;6.98;100.00;100347.03;5069248;28;19966;-56
2023/11/16 06:43:10;;;;;;;;;;;;;;;7.01;100.00;100345.13;5050852;28;20425;-58
2023/11/16 06:45:40;;;;;;;;;;;;;;;7.00;100.00;100338.22;5080023;28;20551;-56
2023/11/16 06:48:08;;;;;;;;;;;;;;;7.01;100.00;100352.13;5075677;28;20433;-57
2023/11/16 06:50:36;;;;;;;;;;;;;;;7.02;100.00;100338.13;5081502;28;19928;-57
2023/11/16 06:53:05;;;;;;;;;;;;;;;6.99;100.00;100339.13;5074493;28;20514;-56
2023/11/16 06:55:32;;;;;;;;;;;;;;;6.98;100.00;100334.84;5081298;28;20267;-58
2023/11/16 06:57:59;;;;;;;;;;;;;;;7.02;100.00;100338.13;5074282;28;19970;-56
2023/11/16 07:00:27;;;;;;;;;;;;;;;7.07;100.00;100341.41;5081520;28;19928;-56
2023/11/16 07:02:54;;;;;;;;;;;;;;;7.04;100.00;100331.06;5063466;28;20442;-50
2023/11/16 07:05:21;;;;;;;;;;;;;;;7.11;100.00;100348.16;5075698;28;20471;-55
2023/11/16 07:07:49;;;;;;;;;;;;;;;7.06;100.00;100335.28;5081271;28;20015;-58
2023/11/16 07:10:16;;;;;;;;;;;;;;;7.06;100.00;100339.66;5055419;28;19928;-55
2023/11/16 07:12:43;;;;;;;;;;;;;;;7.10;100.00;100335.97;5077206;28;20003;-56
2023/11/16 07:15:10;;;;;;;;;;;;;;;7.09;100.00;100339.53;5074307;28;20015;-54
2023/11/16 07:17:38;;;;;;;;;;;;;;;7.12;100.00;100342.00;5079731;28;19971;-58
2023/11/16 07:20:05;;;;;;;;;;;;;;;7.16;100.00;100351.41;5077691;28;19967;-56
2023/11/16 07:22:32;;;;;;;;;;;;;;;7.12;100.00;100341.16;5077159;28;20031;-57
2023/11/16 07:25:04;;;;;;;;;;;;;;;7.16;100.00;100345.31;5078439;28;20043;-55
2023/11/16 07:27:32;;;;;;;;;;;;;;;7.17;100.00;100340.00;5073405;28;19925;-54
2023/11/16 07:29:59;;;;;;;;;;;;;;;7.25;100.00;100350.06;5074634;28;19924;-55
2023/11/16 07:32:26;;;;;;;;;;;;;;;7.34;100.00;100341.78;5076214;28;19925;-56
2023/11/16 07:34:53;;;;;;;;;;;;;;;7.34;100.00;100333.94;5081175;28;19931;-53
2023/11/16 07:37:20;;;;;;;;;;;;;;;7.45;100.00;100339.47;5081853;28;19963;-55
2023/11/16 07:39:47;;;;;;;;;;;;;;;7.48;100.00;100338.47;5077957;28;20015;-55
2023/11/16 07:42:14;;;;;;;;;;;;;;;7.54;100.00;100344.25;5078573;28;20027;-54
2023/11/16 07:44:44;;;;;;;;;;;;;;;7.52;100.00;100346.09;5074819;28;20459;-51
2023/11/16 07:47:11;;;;;;;;;;;;;;;7.58;100.00;100339.69;5078556;28;19924;-54
2023/11/16 07:49:38;;;;;;;;;;;;;;;7.59;100.00;100344.84;5077840;28;19968;-54
2023/11/16 07:52:06;;;;;;;;;;;;;;;7.51;100.00;100344.38;5077532;28;19929;-58
2023/11/16 07:54:34;;;;;;;;;;;;;;;7.45;100.00;100342.09;5080665;28;20410;-57
2023/11/16 07:57:02;;;;;;;;;;;;;;;7.45;100.00;100331.63;5079152;28;20042;-56
2023/11/16 07:59:34;;;;;;;;;;;;;;;7.33;100.00;100334.84;5080120;28;20386;-52
2023/11/16 08:02:01;;;;;;;;;;;;;;;7.32;100.00;100336.63;5069573;28;20046;-54
2023/11/16 08:04:31;;;;;;;;;;;;;;;7.41;100.00;100332.69;5075199;28;19981;-55
2023/11/16 08:06:59;;;;;;;;;;;;;;;7.49;100.00;100348.03;5077983;28;19928;-56
2023/11/16 08:09:29;;;;;;;;;;;;;;;7.45;100.00;100360.44;5082060;28;19924;-52
2023/11/16 08:11:56;;;;;;;;;;;;;;;7.43;100.00;100346.56;5075955;28;20015;-53
2023/11/16 08:14:26;;;;;;;;;;;;;;;7.32;100.00;100333.16;5073983;28;19928;-56
2023/11/16 08:16:58;;;;;;;;;;;;;;;7.30;100.00;100341.09;5072883;28;20362;-55
2023/11/16 08:19:26;;;;;;;;;;;;;;;7.27;100.00;100336.00;5076635;28;19967;-55
2023/11/16 08:21:55;;;;;;;;;;;;;;;7.34;100.00;100339.19;5076834;28;20088;-57
2023/11/16 08:24:27;;;;;;;;;;;;;;;7.19;100.00;100356.47;5076540;28;20015;-58
2023/11/16 08:26:58;;;;;;;;;;;;;;;7.30;100.00;100358.59;5076976;28;20469;-58
2023/11/16 08:29:25;;;;;;;;;;;;;;;7.36;100.00;100338.16;5075856;28;19982;-57
2023/11/16 08:31:54;;;;;;;;;;;;;;;7.45;100.00;100352.56;5071315;28;20004;-57
2023/11/16 08:34:23;;;;;;;;;;;;;;;7.54;100.00;100359.97;5076220;28;19925;-56
2023/11/16 08:36:50;;;;;;;;;;;;;;;7.47;100.00;100345.47;5075294;28;19925;-59
2023/11/16 08:39:18;;;;;;;;;;;;;;;7.34;100.00;100353.13;5072639;28;19963;-56
2023/11/16 08:41:45;;;;;;;;;;;;;;;7.45;100.00;100351.72;5071378;28;20398;-53
2023/11/16 08:44:16;;;;;;;;;;;;;;;7.47;100.00;100353.31;5071490;28;20007;-53
2023/11/16 08:46:52;;;;;;;;;;;;;;;7.54;100.00;100361.75;5072145;28;19962;-57
2023/11/16 08:49:19;;;;;;;;;;;;;;;7.53;100.00;100362.66;5051676;28;19986;-57
2023/11/16 08:51:47;;;;;;;;;;;;;;;7.53;100.00;100363.50;5078913;28;20027;-58
2023/11/16 08:54:17;;;;;;;;;;;;;;;7.49;100.00;100366.38;5077303;28;20401;-58
2023/11/16 08:56:44;;;;;;;;;;;;;;;7.48;100.00;100362.91;5074654;28;19931;-57
2023/11/16 08:59:14;;;;;;;;;;;;;;;7.56;100.00;100376.44;5068140;28;20023;-56
2023/11/16 09:01:43;;;;;;;;;;;;;;;7.59;100.00;100359.72;5061246;28;19967;-51
2023/11/16 09:04:14;;;;;;;;;;;;;;;7.50;100.00;100365.44;5073930;28;19940;-57
2023/11/16 09:06:43;;;;;;;;;;;;;;;7.34;100.00;100367.97;5073630;28;19939;-54
2023/11/16 09:09:33;;;;;;;;;;;;;;;7.22;100.00;100371.19;5064894;28;19925;-55
2023/11/16 09:11:58;;;;;;;;;;;;;;;7.33;100.00;100367.09;5078196;28;19971;-53
2023/11/16 09:14:25;;;;;;;;;;;;;;;7.45;100.00;100373.53;5074528;28;19930;-55
2023/11/16 09:17:02;;;;;;;;;;;;;;;7.46;100.00;100362.13;5076906;28;19964;-56
2023/11/16 09:19:39;;;;;;;;;;;;;;;7.50;100.00;100366.28;5064056;28;19978;-56
2023/11/16 09:22:09;;;;;;;;;;;;;;;7.52;100.00;100367.06;5077470;28;19934;-58
2023/11/16 09:24:37;;;;;;;;;;;;;;;7.45;100.00;100355.19;5071597;28;19924;-56
2023/11/16 09:27:04;;;;;;;;;;;;;;;7.42;100.00;100368.44;5070720;28;19989;-51
2023/11/16 09:29:33;;;;;;;;;;;;;;;7.45;100.00;100359.59;5071967;28;19971;-55
2023/11/16 09:32:00;;;;;;;;;;;;;;;7.56;100.00;100345.00;5080754;28;20059;-55
2023/11/16 09:34:27;;;;;;;;;;;;;;;7.56;100.00;100339.75;5071127;28;19967;-55
2023/11/16 09:36:54;;;;;;;;;;;;;;;7.63;100.00;100332.44;5075464;28;20022;-58
2023/11/16 09:39:22;;;;;;;;;;;;;;;7.59;100.00;100357.09;5072740;28;19926;-53
2023/11/16 09:41:49;;;;;;;;;;;;;;;7.63;100.00;100344.69;5072819;28;20044;-56
2023/11/16 09:44:17;;;;;;;;;;;;;;;7.78;100.00;100352.59;5052290;28;20011;-57
2023/11/16 09:46:47;;;;;;;;;;;;;;;7.89;100.00;100356.47;5073848;28;19930;-56
2023/11/16 09:49:16;;;;;;;;;;;;;;;7.82;100.00;100348.91;5061887;28;19960;-57
2023/11/16 09:51:45;;;;;;;;;;;;;;;7.86;100.00;100353.06;5086821;28;19932;-53
2023/11/16 09:54:12;;;;;;;;;;;;;;;7.82;100.00;100351.53;5053267;28;19956;-57
2023/11/16 09:56:43;;;;;;;;;;;;;;;7.90;100.00;100348.53;5085498;28;20050;-56
2023/11/16 09:59:25;;;;;;;;;;;;;;;8.15;100.00;100355.06;5071257;28;19948;-56
2023/11/16 10:01:59;;;;;;;;;;;;;;;8.17;100.00;100364.56;5068371;28;19956;-54
2023/11/16 10:04:28;;;;;;;;;;;;;;;8.35;100.00;100350.47;5060678;28;20027;-57
2023/11/16 10:06:57;;;;;;;;;;;;;;;8.46;100.00;100349.91;5074302;28;20091;-55
2023/11/16 10:09:33;;;;;;;;;;;;;;;8.19;98.24;100339.09;5070546;28;19928;-53
2023/11/16 10:12:07;;;;;;;;;;;;;;;8.50;98.55;100325.19;5063760;28;19939;-53
2023/11/16 10:14:39;;;;;;;;;;;;;;;8.88;95.74;100330.94;5065716;28;19967;-55
2023/11/16 10:17:06;;;;;;;;;;;;;;;8.82;94.28;100336.53;5070128;28;19985;-58
2023/11/16 10:19:33;;;;;;;;;;;;;;;8.90;92.00;100330.84;5068294;28;19971;-52
2023/11/16 10:22:01;;;;;;;;;;;;;;;8.79;88.94;100318.34;5070336;28;19939;-52
2023/11/16 10:24:28;;;;;;;;;;;;;;;8.98;88.49;100315.50;5071096;28;19975;-56
2023/11/16 10:26:55;;;;;;;;;;;;;;;9.16;87.64;100312.78;5073505;28;19931;-56
2023/11/16 10:29:22;;;;;;;;;;;;;;;8.78;84.96;100311.41;5074776;28;19964;-54
2023/11/16 10:31:50;;;;;;;;;;;;;;;9.02;85.65;100305.69;5073688;28;20325;-51
2023/11/16 10:34:24;;;;;;;;;;;;;;;9.22;84.38;100302.75;5063569;28;19924;-55
2023/11/16 10:36:55;;;;;;;;;;;;;;;9.51;83.71;100306.28;5069890;28;19993;-55
2023/11/16 10:39:25;;;;;;;;;;;;;;;9.36;83.22;100300.13;5069323;28;19967;-54
2023/11/16 10:41:52;;;;;;;;;;;;;;;9.64;83.96;100296.75;5050068;28;20024;-55
2023/11/16 10:44:20;;;;;;;;;;;;;;;9.70;80.22;100305.19;5083923;28;20329;-53
2023/11/16 10:46:47;;;;;;;;;;;;;;;9.41;77.77;100288.50;5071619;28;19956;-58
2023/11/16 10:49:14;;;;;;;;;;;;;;;9.70;77.59;100299.94;5090056;28;20019;-58
2023/11/16 10:51:46;;;;;;;;;;;;;;;9.92;75.77;100294.22;5075759;28;19925;-59
2023/11/16 10:54:13;;;;;;;;;;;;;;;9.45;75.70;100290.03;5078494;28;19960;-57
2023/11/16 10:56:41;;;;;;;;;;;;;;;9.58;75.66;100312.00;5052587;28;19985;-53
2023/11/16 10:59:11;;;;;;;;;;;;;;;9.37;75.98;100299.22;5074073;28;19970;-57
2023/11/16 11:01:38;;;;;;;;;;;;;;;8.92;78.45;100307.16;5081989;28;19959;-54
2023/11/16 11:04:06;;;;;;;;;;;;;;;8.82;77.65;100318.16;5072806;28;20445;-54
2023/11/16 11:06:39;;;;;;;;;;;;;;;8.77;79.06;100301.81;5073247;28;19971;-59
2023/11/16 11:09:08;;;;;;;;;;;;;;;8.74;78.40;100307.25;5074990;28;20047;-57
2023/11/16 11:11:38;;;;;;;;;;;;;;;8.84;78.68;100304.97;5079486;28;19971;-56
2023/11/16 11:14:06;;;;;;;;;;;;;;;8.92;78.23;100318.50;5072547;28;20027;-57
2023/11/16 11:16:34;;;;;;;;;;;;;;;8.95;77.92;100306.97;5078187;28;19948;-55
2023/11/16 11:19:03;;;;;;;;;;;;;;;9.21;77.30;100308.09;5085463;28;19928;-56
2023/11/16 11:21:31;;;;;;;;;;;;;;;9.08;77.64;100300.91;5080028;28;19924;-57
2023/11/16 11:24:04;;;;;;;;;;;;;;;9.38;75.90;100315.84;5075032;28;19924;-56
2023/11/16 11:26:48;;;;;;;;;;;;;;;9.34;75.95;100309.06;5074940;28;19947;-56
2023/11/16 11:29:15;;;;;;;;;;;;;;;10.11;73.23;100313.16;5077330;28;19928;-56
2023/11/16 11:31:42;;;;;;;;;;;;;;;11.08;67.12;100306.09;5080087;28;19993;-58
2023/11/16 11:34:11;;;;;;;;;;;;;;;10.47;68.31;100311.84;5083517;28;19950;-58
2023/11/16 11:36:40;;;;;;;;;;;;;;;10.28;67.94;100314.78;5077406;28;19959;-55
2023/11/16 11:39:14;;;;;;;;;;;;;;;9.26;71.57;100322.63;5067972;28;19956;-56
2023/11/16 11:41:47;;;;;;;;;;;;;;;8.94;74.54;100300.88;5068076;28;20002;-55
2023/11/16 11:44:15;;;;;;;;;;;;;;;8.68;75.62;100293.63;5060649;28;20026;-55
2023/11/16 11:46:43;;;;;;;;;;;;;;;8.54;76.82;100291.78;5071769;28;20465;-53
2023/11/16 11:49:12;;;;;;;;;;;;;;;8.65;77.20;100285.94;5094788;28;20555;-57
2023/11/16 11:51:39;;;;;;;;;;;;;;;8.84;77.54;100289.22;5057062;28;19993;-53
2023/11/16 11:54:07;;;;;;;;;;;;;;;8.78;78.68;100292.16;5052692;28;19932;-57
2023/11/16 11:56:35;;;;;;;;;;;;;;;8.71;78.39;100301.34;5069257;28;19960;-55
2023/11/16 11:59:02;;;;;;;;;;;;;;;8.86;78.52;100292.59;5044882;28;19936;-51
2023/11/16 12:01:29;;;;;;;;;;;;;;;9.35;75.02;100287.09;5068144;28;19978;-55
2023/11/16 12:04:00;;;;;;;;;;;;;;;9.46;74.22;100292.59;5075947;28;19974;-57
2023/11/16 12:06:39;;;;;;;;;;;;;;;9.56;74.30;100291.09;5069324;28;20508;-54
2023/11/16 12:09:06;;;;;;;;;;;;;;;9.36;74.58;100294.03;5077250;28;20330;-53
2023/11/16 12:11:34;;;;;;;;;;;;;;;9.21;75.42;100298.44;5069402;28;20019;-55
2023/11/16 12:14:03;;;;;;;;;;;;;;;9.35;75.93;100295.00;5077954;28;20201;-56
2023/11/16 12:16:30;;;;;;;;;;;;;;;9.51;75.11;100302.81;5071829;28;20373;-56
2023/11/16 12:18:57;;;;;;;;;;;;;;;10.09;70.37;100310.66;5069182;28;19985;-57
2023/11/16 12:21:25;;;;;;;;;;;;;;;10.55;68.72;100315.69;5069257;28;20013;-50
2023/11/16 12:23:53;;;;;;;;;;;;;;;11.37;63.60;100306.78;5068372;28;19928;-55
2023/11/16 12:26:24;;;;;;;;;;;;;;;10.14;64.83;100305.94;5069384;28;19959;-55
2023/11/16 12:28:51;;;;;;;;;;;;;;;10.42;65.01;100306.88;5067659;28;20049;-55
2023/11/16 12:31:18;;;;;;;;;;;;;;;10.52;65.13;100286.91;5066769;28;20035;-54
2023/11/16 12:33:48;;;;;;;;;;;;;;;10.25;64.66;100292.13;5072867;28;20390;-57
2023/11/16 12:36:22;;;;;;;;;;;;;;;9.50;66.15;100273.06;5076250;28;20317;-56
2023/11/16 12:38:49;;;;;;;;;;;;;;;9.51;66.60;100287.91;5067369;28;20409;-57
2023/11/16 12:41:16;;;;;;;;;;;;;;;9.62;67.15;100279.34;5068850;28;19929;-55
2023/11/16 12:43:43;;;;;;;;;;;;;;;9.43;67.57;100286.66;5049995;28;19988;-56